createdAt,value
2022-12-16T00:00:39.751Z,24.05
2022-12-16T00:05:44.664Z,23.85
2022-12-16T00:10:55.206Z,23.25
2022-12-16T00:15:59.013Z,22.92
2022-12-16T00:21:03.046Z,23.75
2022-12-16T00:26:08.154Z,23.67
2022-12-16T00:31:11.959Z,22.02
2022-12-16T00:36:15.552Z,24.10
2022-12-16T00:41:20.634Z,23.95
2022-12-16T00:46:24.310Z,22.83
2022-12-16T00:51:27.895Z,24.90
2022-12-16T00:56:32.713Z,22.20
2022-12-16T01:01:36.335Z,23.98
2022-12-16T01:06:40.009Z,24.77
2022-12-16T01:11:44.836Z,24.80
2022-12-16T01:16:48.349Z,23.98
2022-12-16T01:21:51.966Z,26.40
2022-12-16T01:26:57.189Z,26.75
2022-12-16T01:32:00.804Z,24.35
2022-12-16T01:37:04.528Z,25.48
2022-12-16T01:42:13.511Z,27.58
2022-12-16T01:47:19.384Z,27.15
2022-12-16T01:52:27.130Z,28.38
2022-12-16T01:57:37.423Z,26.13
2022-12-16T02:02:43.985Z,26.85
2022-12-16T02:07:57.514Z,26.25
2022-12-16T02:13:10.572Z,27.40
2022-12-16T02:18:22.765Z,28.35
2022-12-16T02:23:43.879Z,25.33
2022-12-16T02:29:14.779Z,28.08
2022-12-16T02:39:34.051Z,28.15
2022-12-16T02:49:53.030Z,27.95
2022-12-16T02:54:59.784Z,27.48
2022-12-16T03:00:06.888Z,27.17
2022-12-16T03:05:17.001Z,28.38
2022-12-16T03:10:25.995Z,20.20
2022-12-16T03:15:34.195Z,28.60
2022-12-16T03:20:44.823Z,27.63
2022-12-16T03:25:51.853Z,28.33
2022-12-16T03:31:03.133Z,27.17
2022-12-16T03:36:13.661Z,27.58
2022-12-16T03:41:19.135Z,28.10
2022-12-16T03:46:22.700Z,29.17
2022-12-16T03:51:27.664Z,29.27
2022-12-16T03:56:31.147Z,30.40
2022-12-16T04:01:34.722Z,30.02
2022-12-16T04:06:39.624Z,30.30
2022-12-16T04:12:00.363Z,30.25
2022-12-16T04:17:22.218Z,33.75
2022-12-16T04:22:48.279Z,30.00
2022-12-16T04:27:51.712Z,31.38
2022-12-16T04:33:16.635Z,30.92
2022-12-16T04:38:38.872Z,30.70
2022-12-16T04:43:59.731Z,33.40
2022-12-16T04:49:20.839Z,34.47
2022-12-16T04:54:42.969Z,31.83
2022-12-16T05:00:03.799Z,31.70
2022-12-16T05:16:08.171Z,31.20
2022-12-16T05:21:28.987Z,31.77
2022-12-16T05:26:51.674Z,34.63
2022-12-16T05:32:12.525Z,30.33
2022-12-16T05:42:55.390Z,28.08
2022-12-16T05:48:16.351Z,28.38
2022-12-16T05:53:37.129Z,30.95
2022-12-16T06:04:20.259Z,30.77
2022-12-16T06:09:41.105Z,31.10
2022-12-16T06:20:25.898Z,29.30
2022-12-16T06:25:46.813Z,28.98
2022-12-16T06:36:30.100Z,27.77
2022-12-16T06:41:51.002Z,29.60
2022-12-16T06:47:13.129Z,28.27
2022-12-16T06:52:34.020Z,25.17
2022-12-16T06:57:55.141Z,29.25
2022-12-16T07:03:22.654Z,25.80
2022-12-16T07:08:43.820Z,25.38
2022-12-16T07:14:04.636Z,27.42
2022-12-16T07:24:47.743Z,23.83
2022-12-16T07:30:09.052Z,26.38
2022-12-16T07:35:32.065Z,24.83
2022-12-16T07:40:52.778Z,25.27
2022-12-16T07:46:14.248Z,27.38
2022-12-16T07:51:36.677Z,25.70
2022-12-16T07:56:57.635Z,23.42
2022-12-16T08:02:19.210Z,25.00
2022-12-16T08:07:41.961Z,22.23
2022-12-16T08:13:11.360Z,25.45
2022-12-16T08:18:32.389Z,21.30
2022-12-16T08:23:54.977Z,26.48
2022-12-16T08:29:42.687Z,24.30
2022-12-16T08:34:57.439Z,21.40
2022-12-16T08:40:34.928Z,22.63
2022-12-16T08:45:57.205Z,21.17
2022-12-16T08:51:20.829Z,22.23
2022-12-16T08:56:44.124Z,19.85
2022-12-16T09:02:05.463Z,20.58
2022-12-16T09:07:26.704Z,22.30
2022-12-16T09:12:49.155Z,21.35
2022-12-16T09:18:13.050Z,18.00
2022-12-16T09:23:34.447Z,14.38
2022-12-16T09:28:57.032Z,12.80
2022-12-16T09:34:18.328Z,11.73
2022-12-16T09:39:39.708Z,13.13
2022-12-16T09:45:15.081Z,14.27
2022-12-16T09:50:40.883Z,12.15
2022-12-16T09:56:04.751Z,12.20
2022-12-16T10:01:30.774Z,19.55
2022-12-16T10:07:02.041Z,12.73
2022-12-16T10:12:32.575Z,13.98
2022-12-16T10:17:59.468Z,12.95
2022-12-16T10:23:29.284Z,14.02
2022-12-16T10:29:03.425Z,12.27
2022-12-16T10:34:30.577Z,12.65
2022-12-16T10:39:56.961Z,13.35
2022-12-16T10:45:36.731Z,13.85
2022-12-16T10:50:59.653Z,13.43
2022-12-16T10:56:36.772Z,13.25
2022-12-16T11:01:58.120Z,12.23
2022-12-16T11:07:21.263Z,13.63
2022-12-16T11:12:45.821Z,14.50
2022-12-16T11:18:21.323Z,13.10
2022-12-16T11:23:44.555Z,15.15
2022-12-16T11:29:20.089Z,15.77
2022-12-16T11:34:40.310Z,15.05
2022-12-16T11:40:03.191Z,17.73
2022-12-16T11:45:30.452Z,16.15
2022-12-16T11:50:55.459Z,16.13
2022-12-16T11:56:19.491Z,17.15
2022-12-16T12:01:57.478Z,17.33
2022-12-16T12:07:44.561Z,18.73
2022-12-16T12:13:15.854Z,18.90
2022-12-16T12:18:46.185Z,13.97
2022-12-16T12:24:18.626Z,18.75
2022-12-16T12:29:50.677Z,18.60
2022-12-16T12:35:18.301Z,15.93
2022-12-16T12:40:46.434Z,17.00
2022-12-16T12:46:19.242Z,17.35
2022-12-16T12:51:47.151Z,16.77
2022-12-16T12:57:10.143Z,17.30
2022-12-16T13:02:38.243Z,17.05
2022-12-16T13:07:59.617Z,17.63
2022-12-16T13:13:47.017Z,18.40
2022-12-16T13:19:56.380Z,18.48
2022-12-16T13:25:23.672Z,18.88
2022-12-16T13:30:47.409Z,21.70
2022-12-16T13:36:14.830Z,20.20
2022-12-16T13:42:16.945Z,21.98
2022-12-16T13:47:51.114Z,21.30
2022-12-16T13:53:17.543Z,21.10
2022-12-16T13:58:51.295Z,23.77
2022-12-16T14:04:13.525Z,26.52
2022-12-16T14:09:47.040Z,27.25
2022-12-16T14:15:30.843Z,26.33
2022-12-16T14:20:58.534Z,26.90
2022-12-16T14:26:22.162Z,26.88
2022-12-16T14:31:52.862Z,38.53
2022-12-16T14:42:43.855Z,28.33
2022-12-16T14:48:05.102Z,28.13
2022-12-16T14:53:35.559Z,29.77
2022-12-16T14:58:58.388Z,30.17
2022-12-16T15:04:22.992Z,28.17
2022-12-16T15:09:48.358Z,31.58
2022-12-16T15:15:12.726Z,31.65
2022-12-16T15:20:38.021Z,33.33
2022-12-16T15:26:00.606Z,32.60
2022-12-16T15:31:34.294Z,31.40
2022-12-16T15:36:56.240Z,48.45
2022-12-16T15:42:17.271Z,36.97
2022-12-16T15:53:04.187Z,36.58
2022-12-16T15:58:33.141Z,35.42
2022-12-16T16:03:57.043Z,36.72
2022-12-16T16:09:18.173Z,35.63
2022-12-16T16:14:39.350Z,78.68
2022-12-16T16:20:03.832Z,39.53
2022-12-16T16:25:27.486Z,39.75
2022-12-16T16:30:48.933Z,39.10
2022-12-16T16:36:12.169Z,36.63
2022-12-16T16:41:35.129Z,38.42
2022-12-16T16:46:58.988Z,36.70
2022-12-16T16:52:21.646Z,38.20
2022-12-16T16:57:44.433Z,37.40
2022-12-16T17:03:05.447Z,33.70
2022-12-16T17:08:36.778Z,33.38
2022-12-16T17:13:58.165Z,38.90
2022-12-16T17:19:22.576Z,39.97
2022-12-16T17:24:49.289Z,36.30
2022-12-16T17:30:15.011Z,31.70
2022-12-16T17:35:32.641Z,38.33
2022-12-16T17:40:55.162Z,31.38
2022-12-16T17:46:17.688Z,30.80
2022-12-16T17:51:38.878Z,40.72
2022-12-16T17:57:00.934Z,39.08
2022-12-16T18:02:22.706Z,39.63
2022-12-16T18:07:43.952Z,39.42
2022-12-16T18:13:06.579Z,37.15
2022-12-16T18:18:27.662Z,36.83
2022-12-16T18:23:49.196Z,39.15
2022-12-16T18:29:12.205Z,37.38
2022-12-16T18:34:34.167Z,35.10
2022-12-16T18:39:55.387Z,38.00
2022-12-16T18:45:17.753Z,34.03
2022-12-16T18:50:38.830Z,35.40
2022-12-16T19:01:24.817Z,30.38
2022-12-16T19:06:45.791Z,32.92
2022-12-16T19:12:07.293Z,33.58
2022-12-16T19:17:28.596Z,33.85
2022-12-16T19:22:50.035Z,30.35
2022-12-16T19:28:25.410Z,31.60
2022-12-16T19:33:47.650Z,29.27
2022-12-16T19:39:09.046Z,30.38
2022-12-16T19:44:30.494Z,28.10
2022-12-16T19:49:53.400Z,33.72
2022-12-16T19:55:21.334Z,31.75
2022-12-16T20:00:42.399Z,32.63
2022-12-16T20:11:26.523Z,32.70
2022-12-16T20:16:47.508Z,29.88
2022-12-16T20:27:50.766Z,29.45
2022-12-16T20:33:13.016Z,33.40
2022-12-16T20:38:35.388Z,31.85
2022-12-16T20:44:11.031Z,38.47
2022-12-16T20:49:37.890Z,27.23
2022-12-16T20:55:00.663Z,31.33
2022-12-16T21:00:22.690Z,31.52
2022-12-16T21:05:43.526Z,33.40
2022-12-16T21:11:05.932Z,25.90
2022-12-16T21:16:27.394Z,31.85
2022-12-16T21:21:51.718Z,29.95
2022-12-16T21:27:14.134Z,33.20
2022-12-16T21:32:39.584Z,36.47
2022-12-16T21:38:03.867Z,33.03
2022-12-16T21:43:26.454Z,36.55
2022-12-16T21:48:47.556Z,34.38
2022-12-16T21:54:10.777Z,34.15
2022-12-16T21:59:33.817Z,34.80
2022-12-16T22:04:56.704Z,34.17
2022-12-16T22:10:29.535Z,35.30
2022-12-16T22:15:51.809Z,36.88
2022-12-16T22:21:17.647Z,34.13
2022-12-16T22:26:38.655Z,32.70
2022-12-16T22:36:21.135Z,28.77
2022-12-16T22:37:22.171Z,29.65
2022-12-16T22:42:42.924Z,34.45
2022-12-16T22:48:05.135Z,32.35
2022-12-16T22:53:25.956Z,29.77
2022-12-16T22:58:46.696Z,32.17
2022-12-16T23:04:08.728Z,28.20
2022-12-16T23:09:30.714Z,29.08
2022-12-16T23:20:14.139Z,28.80
2022-12-16T23:25:35.543Z,28.13
2022-12-16T23:30:56.690Z,29.77
2022-12-16T23:36:19.247Z,28.63
2022-12-16T23:41:40.560Z,26.95
2022-12-16T23:47:01.579Z,26.90
2022-12-16T23:57:56.157Z,26.52
